createdAt,value
2018-06-22T00:00:46.316Z,10.39
2018-06-22T00:03:15.718Z,10.43
2018-06-22T00:05:45.060Z,10.36
2018-06-22T00:08:13.456Z,10.33
2018-06-22T00:10:41.836Z,10.30
2018-06-22T00:13:10.247Z,10.41
2018-06-22T00:15:39.650Z,10.38
2018-06-22T00:18:08.932Z,10.33
2018-06-22T00:20:38.284Z,10.36
2018-06-22T00:23:06.683Z,10.40
2018-06-22T00:25:35.049Z,10.37
2018-06-22T00:28:04.450Z,10.35
2018-06-22T00:30:33.730Z,10.33
2018-06-22T00:33:02.163Z,10.35
2018-06-22T00:35:31.395Z,10.30
2018-06-22T00:37:59.798Z,10.29
2018-06-22T00:40:28.163Z,10.31
2018-06-22T00:42:56.885Z,10.35
2018-06-22T00:45:25.238Z,10.28
2018-06-22T00:47:54.615Z,10.19
2018-06-22T00:50:22.986Z,10.21
2018-06-22T00:52:52.359Z,10.14
2018-06-22T00:55:20.727Z,10.16
2018-06-22T00:57:49.187Z,10.34
2018-06-22T01:00:17.590Z,10.17
2018-06-22T01:02:46.852Z,10.16
2018-06-22T01:05:15.259Z,10.15
2018-06-22T01:07:43.626Z,10.21
2018-06-22T01:10:12.029Z,10.17
2018-06-22T01:12:40.399Z,10.20
2018-06-22T01:15:08.796Z,10.18
2018-06-22T01:17:37.182Z,10.17
2018-06-22T01:20:05.587Z,10.18
2018-06-22T01:22:34.019Z,10.11
2018-06-22T01:25:02.488Z,10.12
2018-06-22T01:27:30.902Z,10.12
2018-06-22T01:29:59.271Z,10.00
2018-06-22T01:32:27.688Z,10.03
2018-06-22T01:34:56.061Z,9.95
2018-06-22T01:37:24.467Z,10.13
2018-06-22T01:39:52.835Z,10.15
2018-06-22T01:42:21.290Z,10.11
2018-06-22T01:44:49.674Z,10.12
2018-06-22T01:47:18.104Z,10.13
2018-06-22T01:49:46.475Z,10.20
2018-06-22T01:52:14.883Z,10.06
2018-06-22T01:54:43.262Z,10.10
2018-06-22T01:57:11.641Z,10.12
2018-06-22T01:59:40.130Z,10.12
2018-06-22T02:02:08.505Z,10.04
2018-06-22T02:04:36.894Z,10.06
2018-06-22T02:07:05.456Z,10.06
2018-06-22T02:09:33.843Z,10.21
2018-06-22T02:12:02.255Z,10.17
2018-06-22T02:14:30.658Z,10.17
2018-06-22T02:16:59.059Z,10.03
2018-06-22T02:19:27.448Z,10.04
2018-06-22T02:21:55.846Z,10.00
2018-06-22T02:24:24.250Z,9.98
2018-06-22T02:26:52.838Z,9.94
2018-06-22T02:29:21.214Z,9.84
2018-06-22T02:31:49.577Z,9.89
2018-06-22T02:34:17.955Z,9.90
2018-06-22T02:36:46.314Z,9.85
2018-06-22T02:39:14.692Z,9.79
2018-06-22T02:41:43.060Z,9.92
2018-06-22T02:44:11.434Z,9.95
2018-06-22T02:46:39.803Z,9.81
2018-06-22T02:49:08.171Z,9.80
2018-06-22T02:51:36.754Z,9.90
2018-06-22T02:54:05.149Z,9.89
2018-06-22T02:56:33.570Z,9.79
2018-06-22T02:59:01.942Z,9.77
2018-06-22T03:01:30.315Z,9.74
2018-06-22T03:03:58.684Z,9.76
2018-06-22T03:06:27.065Z,9.79
2018-06-22T03:08:55.454Z,10.01
2018-06-22T03:11:23.818Z,9.96
2018-06-22T03:13:52.186Z,9.92
2018-06-22T03:16:20.559Z,9.89
2018-06-22T03:18:48.992Z,10.03
2018-06-22T03:21:17.358Z,10.02
2018-06-22T03:23:45.766Z,9.94
2018-06-22T03:26:14.125Z,9.85
2018-06-22T03:28:42.485Z,9.82
2018-06-22T03:31:10.971Z,9.80
2018-06-22T03:33:39.354Z,9.92
2018-06-22T03:36:07.714Z,10.01
2018-06-22T03:38:36.101Z,10.11
2018-06-22T03:41:04.619Z,10.20
2018-06-22T03:43:32.988Z,10.15
2018-06-22T03:46:01.362Z,10.23
2018-06-22T03:48:29.742Z,10.35
2018-06-22T03:50:58.106Z,10.51
2018-06-22T03:53:26.480Z,10.55
2018-06-22T03:55:54.895Z,10.68
2018-06-22T03:58:23.268Z,10.86
2018-06-22T04:00:52.680Z,10.75
2018-06-22T04:03:21.062Z,10.85
2018-06-22T04:05:49.430Z,10.81
2018-06-22T04:08:17.944Z,10.90
2018-06-22T04:10:46.245Z,11.15
2018-06-22T04:13:14.626Z,11.01
2018-06-22T04:15:43.074Z,10.91
2018-06-22T04:18:11.472Z,10.96
2018-06-22T04:20:39.851Z,10.93
2018-06-22T04:23:08.257Z,10.97
2018-06-22T04:25:36.631Z,10.99
2018-06-22T04:28:05.006Z,11.12
2018-06-22T04:30:33.378Z,11.03
2018-06-22T04:33:01.751Z,11.10
2018-06-22T04:35:30.124Z,11.17
2018-06-22T04:37:58.482Z,11.20
2018-06-22T04:40:26.854Z,11.26
2018-06-22T04:42:55.238Z,11.32
2018-06-22T04:45:23.618Z,11.37
2018-06-22T04:47:51.983Z,11.41
2018-06-22T04:50:20.354Z,11.34
2018-06-22T04:52:48.765Z,11.41
2018-06-22T04:55:17.146Z,11.41
2018-06-22T04:57:45.607Z,11.38
2018-06-22T05:00:14.004Z,11.40
2018-06-22T05:02:42.391Z,11.46
2018-06-22T05:05:10.803Z,11.49
2018-06-22T05:07:39.182Z,11.65
2018-06-22T05:10:07.582Z,11.63
2018-06-22T05:12:35.962Z,11.63
2018-06-22T05:15:04.337Z,11.83
2018-06-22T05:17:32.955Z,11.97
2018-06-22T05:20:01.337Z,12.10
2018-06-22T05:22:29.715Z,12.21
2018-06-22T05:24:58.079Z,12.28
2018-06-22T05:27:26.463Z,12.27
2018-06-22T05:29:54.828Z,12.32
2018-06-22T05:32:23.259Z,12.37
2018-06-22T05:34:51.626Z,12.53
2018-06-22T05:37:20.025Z,12.57
2018-06-22T05:39:48.458Z,12.64
2018-06-22T05:42:16.838Z,12.68
2018-06-22T05:44:45.201Z,12.80
2018-06-22T05:47:13.603Z,12.80
2018-06-22T05:49:41.995Z,12.85
2018-06-22T05:52:10.366Z,12.95
2018-06-22T05:54:38.787Z,12.77
2018-06-22T05:57:07.194Z,12.62
2018-06-22T05:59:35.598Z,12.29
2018-06-22T06:02:04.899Z,12.41
2018-06-22T06:04:34.194Z,12.37
2018-06-22T06:07:02.576Z,12.33
2018-06-22T06:09:30.980Z,12.39
2018-06-22T06:11:59.499Z,12.71
2018-06-22T06:14:27.997Z,13.10
2018-06-22T06:16:56.391Z,13.39
2018-06-22T06:19:24.966Z,13.45
2018-06-22T06:21:53.394Z,13.34
2018-06-22T06:24:21.772Z,13.32
2018-06-22T06:26:50.167Z,13.20
2018-06-22T06:29:18.573Z,13.32
2018-06-22T06:31:47.020Z,13.14
2018-06-22T06:34:15.453Z,13.43
2018-06-22T06:36:43.800Z,13.36
2018-06-22T06:39:12.279Z,13.47
2018-06-22T06:41:40.741Z,13.13
2018-06-22T06:44:09.135Z,13.05
2018-06-22T06:46:37.550Z,13.21
2018-06-22T06:49:05.924Z,13.37
2018-06-22T06:51:34.325Z,13.64
2018-06-22T06:54:02.772Z,13.84
2018-06-22T06:56:31.191Z,13.61
2018-06-22T06:58:59.568Z,13.57
2018-06-22T07:01:27.955Z,13.36
2018-06-22T07:03:56.418Z,13.02
2018-06-22T07:06:24.832Z,12.91
2018-06-22T07:08:53.238Z,12.94
2018-06-22T07:11:21.624Z,12.77
2018-06-22T07:13:50.015Z,12.82
2018-06-22T07:16:18.401Z,12.78
2018-06-22T07:18:46.895Z,13.12
2018-06-22T07:21:15.379Z,13.23
2018-06-22T07:23:43.755Z,13.25
2018-06-22T07:26:12.135Z,13.20
2018-06-22T07:28:40.526Z,13.43
2018-06-22T07:31:09.092Z,13.75
2018-06-22T07:33:37.464Z,13.91
2018-06-22T07:36:05.866Z,14.22
2018-06-22T07:38:34.267Z,14.33
2018-06-22T07:41:02.744Z,14.30
2018-06-22T07:43:31.162Z,14.49
2018-06-22T07:45:59.529Z,14.38
2018-06-22T07:48:27.907Z,14.31
2018-06-22T07:50:56.279Z,14.18
2018-06-22T07:53:25.680Z,13.90
2018-06-22T07:55:54.046Z,13.68
2018-06-22T07:58:22.511Z,13.73
2018-06-22T08:00:50.914Z,13.87
2018-06-22T08:03:19.347Z,13.87
2018-06-22T08:05:47.768Z,13.82
2018-06-22T08:08:16.137Z,13.97
2018-06-22T08:10:44.674Z,14.06
2018-06-22T08:13:13.051Z,14.33
2018-06-22T08:15:41.443Z,14.37
2018-06-22T08:18:09.821Z,14.67
2018-06-22T08:20:38.347Z,14.81
2018-06-22T08:23:06.758Z,15.12
2018-06-22T08:25:35.166Z,15.23
2018-06-22T08:28:03.588Z,15.16
2018-06-22T08:30:32.085Z,14.88
2018-06-22T08:33:00.490Z,14.74
2018-06-22T08:35:29.071Z,14.75
2018-06-22T08:37:57.496Z,14.76
2018-06-22T08:40:26.415Z,14.90
2018-06-22T08:42:54.834Z,15.08
2018-06-22T08:45:23.261Z,15.05
2018-06-22T08:47:51.635Z,14.78
2018-06-22T08:50:20.023Z,14.51
2018-06-22T08:52:48.430Z,14.36
2018-06-22T08:55:17.103Z,14.18
2018-06-22T08:57:45.520Z,14.16
2018-06-22T09:00:13.943Z,14.25
2018-06-22T09:02:42.315Z,14.35
2018-06-22T09:05:10.690Z,14.49
2018-06-22T09:07:39.129Z,14.46
2018-06-22T09:10:07.787Z,14.54
2018-06-22T09:12:36.359Z,14.85
2018-06-22T09:15:04.759Z,14.84
2018-06-22T09:17:33.155Z,15.03
2018-06-22T09:20:02.530Z,15.03
2018-06-22T09:22:30.957Z,15.54
2018-06-22T09:24:59.328Z,15.53
2018-06-22T09:27:27.695Z,15.95
2018-06-22T09:29:56.076Z,15.82
2018-06-22T09:32:24.479Z,15.78
2018-06-22T09:34:52.848Z,16.10
2018-06-22T09:37:21.368Z,16.22
2018-06-22T09:39:49.765Z,16.26
2018-06-22T09:42:18.323Z,16.61
2018-06-22T09:44:46.747Z,16.47
2018-06-22T09:47:15.130Z,16.23
2018-06-22T09:49:43.539Z,15.97
2018-06-22T09:52:11.918Z,15.41
2018-06-22T09:54:40.388Z,15.11
2018-06-22T09:57:08.767Z,15.17
2018-06-22T09:59:37.140Z,14.94
2018-06-22T10:02:05.567Z,14.78
2018-06-22T10:04:33.983Z,15.36
2018-06-22T10:07:02.370Z,16.13
2018-06-22T10:09:30.800Z,16.60
2018-06-22T10:11:59.207Z,16.21
2018-06-22T10:14:27.580Z,16.37
2018-06-22T10:16:55.955Z,15.31
2018-06-22T10:19:24.371Z,15.37
2018-06-22T10:21:52.796Z,14.81
2018-06-22T10:24:21.183Z,14.74
2018-06-22T10:26:49.612Z,15.05
2018-06-22T10:29:18.058Z,15.00
2018-06-22T10:31:46.426Z,15.17
2018-06-22T10:34:14.862Z,15.55
2018-06-22T10:36:43.222Z,15.87
2018-06-22T10:39:13.016Z,16.09
2018-06-22T10:41:41.497Z,16.34
2018-06-22T10:44:10.467Z,16.17
2018-06-22T10:46:39.061Z,15.78
2018-06-22T10:49:07.426Z,16.33
2018-06-22T10:51:35.847Z,16.75
2018-06-22T10:54:04.264Z,16.87
2018-06-22T10:56:32.704Z,16.82
2018-06-22T10:59:01.090Z,16.79
2018-06-22T11:01:30.420Z,16.29
2018-06-22T11:03:58.797Z,15.94
2018-06-22T11:06:27.179Z,16.21
2018-06-22T11:08:55.622Z,16.42
2018-06-22T11:11:24.022Z,16.59
2018-06-22T11:13:52.518Z,16.05
2018-06-22T11:16:20.864Z,16.48
2018-06-22T11:18:49.313Z,16.83
2018-06-22T11:21:17.735Z,17.02
2018-06-22T11:23:46.139Z,16.78
2018-06-22T11:26:14.562Z,16.84
2018-06-22T11:28:42.996Z,16.59
2018-06-22T11:31:11.406Z,17.10
2018-06-22T11:33:39.791Z,17.40
2018-06-22T11:36:08.260Z,17.62
2018-06-22T11:38:36.654Z,17.64
2018-06-22T11:41:05.016Z,17.89
2018-06-22T11:43:33.508Z,18.24
2018-06-22T11:46:01.927Z,18.40
2018-06-22T11:48:30.321Z,18.63
2018-06-22T11:50:58.758Z,18.56
2018-06-22T11:53:27.138Z,18.33
2018-06-22T11:55:55.561Z,19.04
2018-06-22T11:58:23.960Z,19.81
2018-06-22T12:00:52.381Z,19.24
2018-06-22T12:03:20.777Z,18.88
2018-06-22T12:05:49.217Z,18.37
2018-06-22T12:08:17.602Z,17.26
2018-06-22T12:10:46.088Z,15.86
2018-06-22T12:13:14.472Z,14.08
2018-06-22T12:15:42.922Z,13.14
2018-06-22T12:18:11.330Z,12.46
2018-06-22T12:20:39.755Z,12.13
2018-06-22T12:23:08.132Z,11.62
2018-06-22T12:25:36.547Z,11.47
2018-06-22T12:28:04.995Z,11.23
2018-06-22T12:30:33.414Z,11.08
2018-06-22T12:33:01.816Z,11.20
2018-06-22T12:35:30.179Z,11.18
2018-06-22T12:37:58.573Z,11.23
2018-06-22T12:40:27.017Z,11.33
2018-06-22T12:42:55.467Z,11.45
2018-06-22T12:45:23.847Z,11.53
2018-06-22T12:47:52.230Z,11.73
2018-06-22T12:50:20.593Z,11.80
2018-06-22T12:52:48.967Z,12.20
2018-06-22T12:55:17.347Z,12.64
2018-06-22T12:57:45.747Z,13.28
2018-06-22T13:00:14.159Z,13.79
2018-06-22T13:02:42.547Z,13.98
2018-06-22T13:05:11.199Z,14.24
2018-06-22T13:07:39.654Z,14.26
2018-06-22T13:10:08.026Z,14.26
2018-06-22T13:12:36.436Z,14.44
2018-06-22T13:15:05.277Z,14.60
2018-06-22T13:17:33.693Z,14.68
2018-06-22T13:20:02.151Z,14.79
2018-06-22T13:22:30.599Z,14.98
2018-06-22T13:24:59.002Z,15.46
2018-06-22T13:27:27.416Z,15.72
2018-06-22T13:29:55.866Z,16.08
2018-06-22T13:32:24.247Z,16.21
2018-06-22T13:34:52.610Z,16.38
2018-06-22T13:37:21.044Z,16.72
2018-06-22T13:39:49.472Z,16.60
2018-06-22T13:42:17.839Z,16.43
2018-06-22T13:44:46.211Z,16.85
2018-06-22T13:47:14.586Z,17.45
2018-06-22T13:49:42.963Z,17.77
2018-06-22T13:52:11.386Z,17.69
2018-06-22T13:54:39.783Z,18.22
2018-06-22T13:57:08.352Z,18.63
2018-06-22T13:59:36.581Z,19.05
2018-06-22T14:02:05.030Z,19.04
2018-06-22T14:04:38.843Z,19.56
2018-06-22T14:07:08.120Z,19.73
2018-06-22T14:09:36.547Z,19.83
2018-06-22T14:12:04.906Z,19.94
2018-06-22T14:14:33.295Z,19.71
2018-06-22T14:17:01.692Z,18.64
2018-06-22T14:19:30.074Z,17.70
2018-06-22T14:21:58.436Z,17.08
2018-06-22T14:24:26.815Z,16.44
2018-06-22T14:26:55.207Z,16.06
2018-06-22T14:29:23.594Z,16.16
2018-06-22T14:31:51.974Z,16.21
2018-06-22T14:34:20.347Z,16.48
2018-06-22T14:36:48.722Z,16.60
2018-06-22T14:39:17.142Z,16.83
2018-06-22T14:41:45.563Z,17.02
2018-06-22T14:44:13.942Z,17.76
2018-06-22T14:46:42.356Z,18.40
2018-06-22T14:49:10.782Z,19.48
2018-06-22T14:51:39.203Z,19.63
2018-06-22T14:54:12.827Z,19.07
2018-06-22T14:56:46.527Z,18.61
2018-06-22T14:59:20.248Z,18.17
2018-06-22T15:01:53.958Z,18.09
2018-06-22T15:04:27.622Z,17.87
2018-06-22T15:07:01.260Z,17.91
2018-06-22T15:09:29.686Z,17.80
2018-06-22T15:11:58.066Z,17.57
2018-06-22T15:14:26.435Z,17.59
2018-06-22T15:16:55.284Z,17.30
2018-06-22T15:19:23.692Z,17.29
2018-06-22T15:21:52.122Z,18.14
2018-06-22T15:24:20.505Z,19.62
2018-06-22T15:26:48.875Z,19.89
2018-06-22T15:29:17.250Z,19.39
2018-06-22T15:31:45.644Z,19.08
2018-06-22T15:34:19.512Z,18.56
2018-06-22T15:36:53.384Z,18.46
2018-06-22T15:39:27.076Z,18.60
2018-06-22T15:42:01.787Z,19.65
2018-06-22T15:44:35.851Z,19.89
2018-06-22T15:47:09.758Z,19.35
2018-06-22T15:49:43.594Z,19.61
2018-06-22T15:52:17.415Z,19.24
2018-06-22T15:54:51.174Z,19.17
2018-06-22T15:57:20.620Z,18.70
2018-06-22T15:59:49.095Z,18.50
2018-06-22T16:02:22.884Z,18.11
2018-06-22T16:04:51.483Z,17.87
2018-06-22T16:07:19.889Z,18.04
2018-06-22T16:09:53.647Z,17.88
2018-06-22T16:12:27.434Z,17.92
2018-06-22T16:15:01.291Z,17.79
2018-06-22T16:17:35.083Z,17.95
2018-06-22T16:20:08.868Z,17.83
2018-06-22T16:22:42.524Z,17.75
2018-06-22T16:25:16.216Z,17.57
